Harmony, West Virginia
Current Conditions -  °F | °C
As of 2:20 PM on Tuesday 21 Oct 2014 (Local Time) from KCRW Reporting Station
Light Rain Light Rain  
Wind Chill: 52°   Ceiling: 5000
Heat Index: 52°   Visibility: 9mi
Dew Point: 47°   Wind: 10mph
Humidity: 83%   Direction: 260°W
Pressure: 29.96"   Gusts: 16mph
Location:  38.6926°N, 81.4812°W
Report Text: KCRW 211820Z 26009G14KT 9SM -RA FEW009 SCT021 OVC050 11/08 A2996 RMK AO2 P0000 T01110083
Loading
Personal Weather Stations






























Interactive Weather Map
Tropical Storm Tracking
New forecast layout! Learn more

10-Day Weather Forecast

Advertisements
Track Severe Weather on mobile